Normalwerte entsprechend der Tabelle des DWD von 1961-1990 fr den Standort Annaberg-Buchholz, 650m ASL
Wetterdaten: aktuell Montag, 10.08.2020 04:45
Datum Zeit Temp. A. Feuchte A. Luftdruck Regen Wind Richtung Richtung Taupunkt Windchill Windben
10.08.2020 04:45 15,9 C 87 % 1016,9 hPa 0,0 l/m 2,6 km/h (1 Bft) SW 227 13,7 C 15,9 C 4,8 km/h (1 Bft)
10.08.2020 04:40 15,8 C 87 % 1016,9 hPa 0,0 l/m 3,3 km/h (1 Bft) W 279 13,6 C 15,8 C 6,4 km/h (2 Bft)
10.08.2020 04:35 15,8 C 87 % 1016,7 hPa 0,0 l/m 0,0 km/h (0 Bft) W-SW 238 13,6 C 15,8 C 0,0 km/h (0 Bft)
10.08.2020 04:30 15,8 C 86 % 1016,7 hPa 0,0 l/m 0,0 km/h (0 Bft) W-SW 238 13,5 C 15,8 C 0,0 km/h (0 Bft)
10.08.2020 04:25 15,9 C 87 % 1016,8 hPa 0,0 l/m 0,0 km/h (0 Bft) W-SW 238 13,7 C 15,9 C 0,0 km/h (0 Bft)
10.08.2020 04:20 15,9 C 86 % 1016,8 hPa 0,0 l/m 0,0 km/h (0 Bft) W-SW 238 13,6 C 15,9 C 0,0 km/h (0 Bft)
10.08.2020 04:15 16,1 C 85 % 1016,8 hPa 0,0 l/m 0,0 km/h (0 Bft) W-SW 238 13,6 C 16,1 C 0,0 km/h (0 Bft)
10.08.2020 04:10 16,1 C 85 % 1016,8 hPa 0,0 l/m 0,0 km/h (0 Bft) W-SW 238 13,6 C 16,1 C 0,0 km/h (0 Bft)
10.08.2020 04:05 16,2 C 84 % 1016,9 hPa 0,0 l/m 0,0 km/h (0 Bft) W-SW 238 13,5 C 16,2 C 0,0 km/h (0 Bft)
10.08.2020 04:00 16,3 C 84 % 1017,0 hPa 0,0 l/m 0,0 km/h (0 Bft) W-SW 238 13,6 C 16,3 C 0,0 km/h (0 Bft)
10.08.2020 03:55 16,4 C 83 % 1017,0 hPa 0,0 l/m 0,0 km/h (0 Bft) W-SW 238 13,5 C 16,4 C 0,0 km/h (0 Bft)
10.08.2020 03:50 16,7 C 83 % 1017,0 hPa 0,0 l/m 0,0 km/h (0 Bft) W-SW 238 13,8 C 16,7 C 0,0 km/h (0 Bft)
10.08.2020 03:45 16,9 C 82 % 1017,0 hPa 0,0 l/m 1,3 km/h (1 Bft) W-SW 238 13,8 C 16,9 C 3,2 km/h (1 Bft)
10.08.2020 03:40 17,1 C 82 % 1017,0 hPa 0,0 l/m 2,7 km/h (1 Bft) W-SW 238 14,0 C 17,1 C 4,8 km/h (1 Bft)
10.08.2020 03:35 17,2 C 82 % 1017,0 hPa 0,0 l/m 1,2 km/h (1 Bft) W-SW 250 14,1 C 17,2 C 4,8 km/h (1 Bft)
10.08.2020 03:30 17,4 C 80 % 1017,0 hPa 0,0 l/m 0,0 km/h (0 Bft) W 262 13,9 C 17,4 C 0,0 km/h (0 Bft)
10.08.2020 03:25 17,7 C 80 % 1017,1 hPa 0,0 l/m 0,0 km/h (0 Bft) W 262 14,2 C 17,7 C 0,0 km/h (0 Bft)
10.08.2020 03:20 17,9 C 79 % 1017,1 hPa 0,0 l/m 0,0 km/h (0 Bft) W 262 14,2 C 17,9 C 0,0 km/h (0 Bft)
10.08.2020 03:15 17,9 C 79 % 1017,1 hPa 0,0 l/m 1,0 km/h (0 Bft) W 262 14,2 C 17,9 C 4,8 km/h (1 Bft)
10.08.2020 03:10 17,8 C 80 % 1017,1 hPa 0,0 l/m 3,5 km/h (1 Bft) W 262 14,3 C 17,8 C 6,4 km/h (2 Bft)
10.08.2020 03:05 17,7 C 80 % 1017,0 hPa 0,0 l/m 0,9 km/h (0 Bft) S-SW 197 14,2 C 17,7 C 3,2 km/h (1 Bft)
10.08.2020 03:00 17,9 C 79 % 1017,0 hPa 0,0 l/m 0,0 km/h (0 Bft) S-SW 197 14,2 C 17,9 C 1,6 km/h (1 Bft)
10.08.2020 02:55 18,0 C 79 % 1017,1 hPa 0,0 l/m 1,6 km/h (1 Bft) S-SW 197 14,3 C 18,0 C 4,8 km/h (1 Bft)
10.08.2020 02:50 17,9 C 78 % 1017,1 hPa 0,0 l/m 4,5 km/h (1 Bft) S-SW 200 14,0 C 17,9 C 6,4 km/h (2 Bft)
10.08.2020 02:45 17,9 C 79 % 1017,0 hPa 0,0 l/m 3,8 km/h (1 Bft) S-SW 205 14,2 C 17,9 C 8,0 km/h (2 Bft)
10.08.2020 02:40 18,1 C 77 % 1017,0 hPa 0,0 l/m 1,9 km/h (1 Bft) SW 217 14,0 C 18,1 C 4,8 km/h (1 Bft)
10.08.2020 02:35 18,4 C 77 % 1016,9 hPa 0,0 l/m 0,3 km/h (0 Bft) SW 217 14,3 C 18,4 C 4,8 km/h (1 Bft)
10.08.2020 02:30 18,5 C 76 % 1017,0 hPa 0,0 l/m 4,5 km/h (1 Bft) SW 217 14,2 C 18,5 C 8,0 km/h (2 Bft)
10.08.2020 02:25 18,2 C 77 % 1016,9 hPa 0,0 l/m 6,8 km/h (2 Bft) S-SW 211 14,1 C 18,0 C 11,3 km/h (2 Bft)
10.08.2020 02:20 18,1 C 77 % 1016,9 hPa 0,0 l/m 4,1 km/h (1 Bft) S-SW 213 14,0 C 18,1 C 6,4 km/h (2 Bft)
10.08.2020 02:15 18,4 C 76 % 1016,9 hPa 0,0 l/m 3,1 km/h (1 Bft) W 269 14,1 C 18,4 C 4,8 km/h (1 Bft)
10.08.2020 02:10 19,2 C 73 % 1016,9 hPa 0,0 l/m 3,2 km/h (1 Bft) W 272 14,2 C 19,2 C 4,8 km/h (1 Bft)
10.08.2020 02:05 20,2 C 69 % 1016,9 hPa 0,0 l/m 3,5 km/h (1 Bft) W 272 14,3 C 20,2 C 4,8 km/h (1 Bft)
10.08.2020 02:00 20,9 C 67 % 1016,9 hPa 0,0 l/m 3,3 km/h (1 Bft) S 189 14,5 C 20,9 C 8,0 km/h (2 Bft)
10.08.2020 01:55 21,1 C 66 % 1016,9 hPa 0,0 l/m 5,9 km/h (2 Bft) S-SW 194 14,5 C 21,1 C 9,7 km/h (2 Bft)
10.08.2020 01:50 21,3 C 65 % 1016,9 hPa 0,0 l/m 6,2 km/h (2 Bft) S-SW 202 14,4 C 21,3 C 8,0 km/h (2 Bft)
10.08.2020 01:45 21,6 C 64 % 1017,0 hPa 0,0 l/m 5,3 km/h (1 Bft) S 183 14,5 C 21,6 C 8,0 km/h (2 Bft)
10.08.2020 01:40 21,9 C 63 % 1017,0 hPa 0,0 l/m 5,2 km/h (1 Bft) S 180 14,5 C 21,9 C 9,7 km/h (2 Bft)
10.08.2020 01:35 22,4 C 62 % 1017,1 hPa 0,0 l/m 5,1 km/h (1 Bft) S 169 14,8 C 22,4 C 9,7 km/h (2 Bft)
10.08.2020 01:30 22,7 C 60 % 1017,1 hPa 0,0 l/m 3,3 km/h (1 Bft) SO 142 14,5 C 22,7 C 6,4 km/h (2 Bft)
10.08.2020 01:25 22,9 C 60 % 1017,1 hPa 0,0 l/m 4,1 km/h (1 Bft) O 96 14,7 C 22,9 C 9,7 km/h (2 Bft)
10.08.2020 01:20 23,2 C 60 % 1017,2 hPa 0,0 l/m 4,7 km/h (1 Bft) S 170 15,0 C 23,2 C 14,5 km/h (3 Bft)
10.08.2020 01:15 23,4 C 59 % 1017,2 hPa 0,0 l/m 7,5 km/h (2 Bft) S-SO 148 14,9 C 23,1 C 17,7 km/h (3 Bft)
10.08.2020 01:10 23,5 C 59 % 1017,2 hPa 0,0 l/m 11,3 km/h (2 Bft) S-SO 168 15,0 C 22,2 C 20,9 km/h (4 Bft)
10.08.2020 01:05 23,5 C 58 % 1017,2 hPa 0,0 l/m 12,1 km/h (2 Bft) S-SO 167 14,7 C 22,0 C 24,1 km/h (4 Bft)
10.08.2020 01:00 23,5 C 59 % 1017,3 hPa 0,0 l/m 14,4 km/h (3 Bft) O-SO 109 15,0 C 21,6 C 24,1 km/h (4 Bft)
10.08.2020 00:55 23,5 C 59 % 1017,4 hPa 0,0 l/m 12,8 km/h (3 Bft) SO 127 15,0 C 21,9 C 20,9 km/h (4 Bft)
10.08.2020 00:50 23,4 C 59 % 1017,4 hPa 0,0 l/m 12,6 km/h (3 Bft) O-SO 123 14,9 C 21,8 C 19,3 km/h (3 Bft)
10.08.2020 00:45 23,3 C 60 % 1017,4 hPa 0,0 l/m 12,8 km/h (3 Bft) SO 130 15,1 C 21,7 C 22,5 km/h (4 Bft)
10.08.2020 00:40 23,4 C 60 % 1017,4 hPa 0,0 l/m 12,1 km/h (2 Bft) S-SO 156 15,2 C 21,9 C 20,9 km/h (4 Bft)
10.08.2020 00:35 23,4 C 59 % 1017,3 hPa 0,0 l/m 13,1 km/h (3 Bft) S-SO 148 14,9 C 21,7 C 22,5 km/h (4 Bft)
10.08.2020 00:30 23,3 C 60 % 1017,3 hPa 0,0 l/m 12,9 km/h (3 Bft) SO 140 15,1 C 21,6 C 24,1 km/h (4 Bft)
10.08.2020 00:25 23,3 C 60 % 1017,3 hPa 0,0 l/m 12,5 km/h (2 Bft) O-SO 109 15,1 C 21,7 C 20,9 km/h (4 Bft)
10.08.2020 00:20 23,3 C 60 % 1017,3 hPa 0,0 l/m 12,9 km/h (3 Bft) O-SO 118 15,1 C 21,6 C 20,9 km/h (4 Bft)
10.08.2020 00:15 23,3 C 60 % 1017,4 hPa 0,0 l/m 12,2 km/h (2 Bft) S-SO 148 15,1 C 21,8 C 17,7 km/h (3 Bft)
10.08.2020 00:10 23,2 C 60 % 1017,4 hPa 0,0 l/m 11,1 km/h (2 Bft) O-SO 109 15,0 C 21,9 C 17,7 km/h (3 Bft)
10.08.2020 00:05 23,2 C 60 % 1017,4 hPa 0,0 l/m 11,6 km/h (2 Bft) O-SO 103 15,0 C 21,8 C 17,7 km/h (3 Bft)
10.08.2020 00:00 23,2 C 60 % 1017,5 hPa 0,0 l/m 11,9 km/h (2 Bft) O-SO 119 15,0 C 21,7 C 19,3 km/h (3 Bft)
09.08.2020 23:55 23,2 C 60 % 1017,6 hPa 0,0 l/m 12,6 km/h (3 Bft) O-SO 113 15,0 C 21,6 C 19,3 km/h (3 Bft)
09.08.2020 23:50 23,3 C 60 % 1017,5 hPa 0,0 l/m 10,9 km/h (2 Bft) SO 126 15,1 C 22,1 C 17,7 km/h (3 Bft)
09.08.2020 23:45 23,3 C 60 % 1017,6 hPa 0,0 l/m 11,2 km/h (2 Bft) SO 140 15,1 C 22,0 C 17,7 km/h (3 Bft)
09.08.2020 23:40 23,4 C 60 % 1017,6 hPa 0,0 l/m 12,2 km/h (2 Bft) SO 127 15,2 C 21,9 C 20,9 km/h (4 Bft)
09.08.2020 23:35 23,3 C 60 % 1017,6 hPa 0,0 l/m 11,4 km/h (2 Bft) SO 131 15,1 C 22,0 C 19,3 km/h (3 Bft)
09.08.2020 23:30 23,4 C 59 % 1017,5 hPa 0,0 l/m 13,8 km/h (3 Bft) O-SO 119 14,9 C 21,6 C 19,3 km/h (3 Bft)
09.08.2020 23:25 23,6 C 59 % 1017,5 hPa 0,0 l/m 10,0 km/h (2 Bft) O-SO 119 15,1 C 22,6 C 16,1 km/h (3 Bft)
09.08.2020 23:20 23,7 C 58 % 1017,5 hPa 0,0 l/m 12,1 km/h (2 Bft) O-SO 112 14,9 C 22,3 C 19,3 km/h (3 Bft)
09.08.2020 23:15 23,8 C 58 % 1017,5 hPa 0,0 l/m 12,3 km/h (2 Bft) SO 140 15,0 C 22,3 C 19,3 km/h (3 Bft)
09.08.2020 23:10 23,7 C 59 % 1017,5 hPa 0,0 l/m 13,0 km/h (3 Bft) O-SO 110 15,2 C 22,1 C 22,5 km/h (4 Bft)
09.08.2020 23:05 23,5 C 59 % 1017,5 hPa 0,0 l/m 11,2 km/h (2 Bft) O-SO 113 15,0 C 22,2 C 19,3 km/h (3 Bft)
09.08.2020 23:00 23,4 C 59 % 1017,6 hPa 0,0 l/m 7,6 km/h (2 Bft) SO 124 14,9 C 23,0 C 14,5 km/h (3 Bft)
09.08.2020 22:55 23,3 C 59 % 1017,5 hPa 0,0 l/m 6,3 km/h (2 Bft) S-SO 150 14,8 C 23,3 C 12,9 km/h (3 Bft)
09.08.2020 22:50 23,4 C 59 % 1017,6 hPa 0,0 l/m 6,5 km/h (2 Bft) SO 133 14,9 C 23,4 C 17,7 km/h (3 Bft)
09.08.2020 22:45 23,3 C 59 % 1017,5 hPa 0,0 l/m 7,5 km/h (2 Bft) O-SO 117 14,8 C 23,0 C 17,7 km/h (3 Bft)
09.08.2020 22:40 23,1 C 59 % 1017,5 hPa 0,0 l/m 6,1 km/h (2 Bft) O-SO 115 14,6 C 23,1 C 16,1 km/h (3 Bft)
09.08.2020 22:35 22,4 C 61 % 1017,5 hPa 0,0 l/m 6,0 km/h (2 Bft) SO 125 14,5 C 22,4 C 12,9 km/h (3 Bft)
09.08.2020 22:30 20,9 C 66 % 1017,6 hPa 0,0 l/m 6,2 km/h (2 Bft) SO 132 14,3 C 20,9 C 12,9 km/h (3 Bft)
09.08.2020 22:25 19,4 C 71 % 1017,5 hPa 0,0 l/m 7,2 km/h (2 Bft) SO 133 14,0 C 19,1 C 14,5 km/h (3 Bft)
09.08.2020 22:20 17,9 C 74 % 1017,6 hPa 0,0 l/m 5,1 km/h (1 Bft) SO 136 13,2 C 17,9 C 12,9 km/h (3 Bft)
09.08.2020 22:15 17,6 C 76 % 1017,6 hPa 0,0 l/m 2,5 km/h (1 Bft) O-SO 115 13,3 C 17,6 C 9,7 km/h (2 Bft)
09.08.2020 22:10 17,6 C 76 % 1017,5 hPa 0,0 l/m 1,5 km/h (1 Bft) W-NW 296 13,3 C 17,6 C 4,8 km/h (1 Bft)
09.08.2020 22:05 17,7 C 75 % 1017,6 hPa 0,0 l/m 2,0 km/h (1 Bft) W-NW 296 13,2 C 17,7 C 6,4 km/h (2 Bft)
09.08.2020 22:00 17,8 C 74 % 1017,5 hPa 0,0 l/m 0,0 km/h (0 Bft) S 178 13,1 C 17,8 C 0,0 km/h (0 Bft)
09.08.2020 21:55 18,0 C 74 % 1017,4 hPa 0,0 l/m 0,0 km/h (0 Bft) S 174 13,3 C 18,0 C 0,0 km/h (0 Bft)
09.08.2020 21:50 18,2 C 73 % 1017,5 hPa 0,0 l/m 0,5 km/h (0 Bft) S 174 13,3 C 18,2 C 3,2 km/h (1 Bft)
09.08.2020 21:45 18,6 C 72 % 1017,5 hPa 0,0 l/m 2,2 km/h (1 Bft) S 174 13,4 C 18,6 C 3,2 km/h (1 Bft)
09.08.2020 21:40 18,8 C 71 % 1017,5 hPa 0,0 l/m 2,2 km/h (1 Bft) S 174 13,4 C 18,8 C 3,2 km/h (1 Bft)
09.08.2020 21:35 19,2 C 70 % 1017,5 hPa 0,0 l/m 1,3 km/h (1 Bft) S 174 13,6 C 19,2 C 3,2 km/h (1 Bft)
09.08.2020 21:30 19,4 C 69 % 1017,4 hPa 0,0 l/m 1,4 km/h (1 Bft) S 174 13,6 C 19,4 C 3,2 km/h (1 Bft)
09.08.2020 21:25 19,4 C 68 % 1017,3 hPa 0,0 l/m 1,8 km/h (1 Bft) S 174 13,3 C 19,4 C 3,2 km/h (1 Bft)
09.08.2020 21:20 19,6 C 69 % 1017,3 hPa 0,0 l/m 0,8 km/h (0 Bft) S 174 13,8 C 19,6 C 3,2 km/h (1 Bft)
09.08.2020 21:15 19,8 C 68 % 1017,3 hPa 0,0 l/m 2,3 km/h (1 Bft) S 174 13,7 C 19,8 C 4,8 km/h (1 Bft)
09.08.2020 21:10 19,9 C 68 % 1017,2 hPa 0,0 l/m 2,9 km/h (1 Bft) S 174 13,8 C 19,9 C 8,0 km/h (2 Bft)
09.08.2020 21:05 20,0 C 67 % 1017,1 hPa 0,0 l/m 2,7 km/h (1 Bft) S 170 13,7 C 20,0 C 8,0 km/h (2 Bft)
09.08.2020 21:00 20,2 C 69 % 1017,2 hPa 0,0 l/m 1,9 km/h (1 Bft) S-SO 157 14,3 C 20,2 C 4,8 km/h (1 Bft)
09.08.2020 20:55 20,5 C 68 % 1017,2 hPa 0,0 l/m 1,6 km/h (1 Bft) S-SO 157 14,4 C 20,5 C 3,2 km/h (1 Bft)
09.08.2020 20:50 20,8 C 67 % 1017,2 hPa 0,0 l/m 1,7 km/h (1 Bft) S-SO 157 14,4 C 20,8 C 3,2 km/h (1 Bft)
09.08.2020 20:45 21,1 C 66 % 1017,1 hPa 0,0 l/m 3,1 km/h (1 Bft) S-SO 157 14,5 C 21,1 C 4,8 km/h (1 Bft)
_ Min-Zeit 05:55 16:30 19:20 - 05:00 - - 19:05 05:55 05:00
Minimum _ 13,1 C 33 % 1016,7 hPa - 0,0 km/h (0 Bft) - - 11,4 C 13,1 C 0,0 km/h (0 Bft)
_ Max-Zeit 15:00 06:20 06:15 05:00 01:00 - - 09:00 15:00 00:30
Maximum _ 31,3 C 91 % 1020,3 hPa 0,0 l/m 14,4 km/h
O-SO (3 Bft)
- - 17,7 C 31,3 C 24,1 km/h
SO (4 Bft)
Durchschnitt _ 23,4 C 60 % 1018,4 hPa #0,0 l/m 3,4 km/h (1 Bft) O-SO - 14,0 C 23,2 C 7,3 km/h (2 Bft)
Normalwerte entsprechend der Tabelle des DWD von 1961-1990 fr den Standort Annaberg-Buchholz, 650m ASL